Startpagina
METAR-TAF:

METAR-TAF

Vliegvelden :

Valdez, Alaska, Verenigde Staten

breedte: 61-08N, lengte: 146-16W, hoogte: 37 m

Actueel weer

Dit bericht is 1 uur en het 2 minuten geleden gemaakt, om 01:56 UTC
Weinig wind
Temperatuur 4°C
Vochtigheid 65%
Druk 998 hPa
Zicht: 16.1 km
Geheel bewolkt op 9000 ft

METAR: PAVD 120156Z 00000KT 10SM OVC090 04/M02 A2946 RMK AO2 SLP974 T00391017

Tijdstip: 17:58 (02:58 UTC)

Verwachting

Dit bericht is 3 uur en het 18 minuten geleden gemaakt, om 23:40 UTC
Verwachting geldig van 12 om 00 UTC tot 12 om 24 UTC
Wind 3 kt uit variabele richting
Zicht: 10 km
Gebroken wolken op 9000 ft

TAF: PAVD 112340Z 1200/1224 VRB03KT P6SM BKN090 AMD LTD TO CLD VIS AND WIND

Waarnemingen en weersverwachtingen van meer dan 4000 vliegvelden (METAR en TAF).

De beschikbare stations zijn de gele en rode punten op de kaart.

Ga met uw muis naar het station om de naam te zien.

Klik dan om waarnemingen en weersverwachtingen te zien.

kaart wijzigen: klik op de groene knoppen met een zwart kruis om in te zoomen, op de groene knop met een streepje om uit te zoomen of op de groene pijlen voor aangrenzende kaarten.


METAR-TAF: